Argent Gerbera — V7UC4 — position and weather

sailwx.info

Track history (hours):
 
Tides and Currents Weather Stations Pressure Air Temp Water Temp Dewpoint Dewpoint Depression Visibility Wind Speed Wind Dir Waves Ship Positions

Argent Gerbera

Last reported at 2017-Feb-21 01:27 UTC. Time now 2017-Feb-22 01:39 UTC.
Position N 45°29' W 125°20'.

Length 175 m; draft 9 m.

Type: Ship (hazmat cat B). MMSI: 538003929.

Date/timePositionNaut miles runAvg speedWind from/ knotsBaromVisibWave heightAir tempDewpointWater temp
2017-Feb-21 01:27N 45°29' W 125°20'1213.9
2017-Feb-21 00:33N 45°41' W 125°18'1313.3
2017-Feb-20 23:34N 45°45' W 124°60'1313.4
2017-Feb-20 22:33N 45°54' W 124°45'1313.4
2017-Feb-20 21:34N 46°02' W 124°29'1413.7
2017-Feb-20 20:34N 46°09' W 124°13'1010.2
2017-Feb-20 19:33N 46°15' W 124°00'1211.6
2017-Feb-20 18:34N 46°14' W 123°44'1312.6
2017-Feb-20 17:34N 46°13' W 123°25'1110.7
2017-Feb-20 16:34N 46°11' W 123°10'1413.7
2017-Feb-20 15:33N 46°04' W 122°53'3 3.1
2017-Feb-20 14:32N 46°01' W 122°52'0 0.0
2017-Feb-20 13:32N 46°01' W 122°52'0 0.0
2017-Feb-20 12:32N 46°01' W 122°52'0 0.0
2017-Feb-20 11:29N 46°01' W 122°52'0 0.0
2017-Feb-20 10:32N 46°01' W 122°52'0 0.0
2017-Feb-20 09:32N 46°01' W 122°52'0 0.0
2017-Feb-20 08:32N 46°01' W 122°52'0 0.0
2017-Feb-20 07:32N 46°01' W 122°52'0 0.0
2017-Feb-20 06:32N 46°01' W 122°52'0 0.0
2017-Feb-20 05:32N 46°01' W 122°52'0 0.0
2017-Feb-20 04:32N 46°01' W 122°52'0 0.0
2017-Feb-20 03:29N 46°01' W 122°52'0 0.0
2017-Feb-20 02:29N 46°01' W 122°52'0 0.0
2017-Feb-20 01:32N 46°01' W 122°52'0 0.0
2017-Feb-20 00:32N 46°01' W 122°52'0 0.0
2017-Feb-19 23:32N 46°01' W 122°52'0 0.0
2017-Feb-19 22:32N 46°01' W 122°52'0 0.0
2017-Feb-19 21:32N 46°01' W 122°52'0 0.0
2017-Feb-19 20:32N 46°01' W 122°52'0 0.5
2017-Feb-19 19:33N 46°02' W 122°52'8 8.3
2017-Feb-19 18:33N 46°08' W 123°00'1010.4
2017-Feb-19 17:33N 46°09' W 123°15'9 8.5
2017-Feb-19 16:33N 46°14' W 123°26'1111.4
2017-Feb-19 15:34N 46°15' W 123°42'1110.7
2017-Feb-19 14:33N 46°13' W 123°57'1211.5
2017-Feb-19 13:33N 46°11' W 124°14'9 8.9
2017-Feb-19 12:33N 46°12' W 124°27'8 7.8
2017-Feb-19 11:33N 46°12' W 124°38'10 9.8
2017-Feb-19 10:33N 46°12' W 124°52'9 9.1
2017-Feb-19 09:33N 46°13' W 125°05'1110.6
2017-Feb-19 08:33N 46°13' W 125°21'7 7.1
2017-Feb-19 07:32N 46°18' W 125°27'10 9.6
2017-Feb-19 06:32N 46°28' W 125°27'10 9.8
2017-Feb-19 05:33N 46°38' W 125°28'9812.1
2017-Feb-18 21:29N 48°15' W 125°28'1213.0
2017-Feb-18 20:33N 48°27' W 125°24'1211.4
2017-Feb-18 19:32N 48°31' W 125°08'3214.1
2017-Feb-18 17:15N 48°24' W 124°20'1014.1
2017-Feb-18 16:33N 48°20' W 124°07'1413.4
2017-Feb-18 15:32N 48°16' W 123°47'1212.4
2017-Feb-18 14:33N 48°17' W 123°29'1111.1
2017-Feb-18 13:33N 48°24' W 123°16'1414.0
2017-Feb-18 12:34N 48°38' W 123°14'1313.2
2017-Feb-18 11:33N 48°48' W 123°01'1515.4
2017-Feb-18 10:33N 48°59' W 123°17'1313.4
2017-Feb-18 09:33N 49°12' W 123°22'1211.6
2017-Feb-18 08:33N 49°19' W 123°08'4 3.9
2017-Feb-18 07:33N 49°18' W 123°02'0 0.0
2017-Feb-18 06:33N 49°18' W 123°02'0 0.0
2017-Feb-18 05:33N 49°18' W 123°02'0 0.0
2017-Feb-18 04:33N 49°18' W 123°02'0 0.0
2017-Feb-18 03:33N 49°18' W 123°02'0 0.0
2017-Feb-18 02:33N 49°18' W 123°02'0 0.0
2017-Feb-18 01:33N 49°18' W 123°02'0 0.0
2017-Feb-18 00:33N 49°18' W 123°02'0 0.0
2017-Feb-17 23:33N 49°18' W 123°02'0 0.0
2017-Feb-17 22:33N 49°18' W 123°02'0 0.0
2017-Feb-17 21:33N 49°18' W 123°02'0 0.0
2017-Feb-17 20:30N 49°18' W 123°02'0 0.0
2017-Feb-17 19:33N 49°18' W 123°02'0 0.0
2017-Feb-17 18:33N 49°18' W 123°02'0 0.0
2017-Feb-17 17:30N 49°18' W 123°02'0 0.0
2017-Feb-17 16:30N 49°18' W 123°02'0 0.0
2017-Feb-17 15:33N 49°18' W 123°02'0 0.0
2017-Feb-17 14:33N 49°18' W 123°02'0 0.0
2017-Feb-17 13:33N 49°18' W 123°02'0 0.0
2017-Feb-17 12:33N 49°18' W 123°02'0 0.0
2017-Feb-17 11:30N 49°18' W 123°02'0 0.0
2017-Feb-17 10:30N 49°18' W 123°02'0 0.0
2017-Feb-17 09:33N 49°18' W 123°02'2 2.0
2017-Feb-17 08:33N 49°18' W 123°05'9 9.2
2017-Feb-17 07:34N 49°16' W 123°19'1413.9
2017-Feb-17 06:33N 49°02' W 123°18'1414.5
2017-Feb-17 05:33N 48°51' W 123°03'1211.9
2017-Feb-17 04:33N 48°42' W 123°14'1514.9
2017-Feb-17 03:33N 48°27' W 123°10'1212.1
2017-Feb-17 02:33N 48°20' W 123°24'9 8.6
2017-Feb-17 01:33N 48°14' W 123°33'1413.7
2017-Feb-17 00:33N 48°13' W 123°54'1414.4
2017-Feb-16 23:33N 48°19' W 124°13'1615.7
2017-Feb-16 22:33N 48°26' W 124°35'1413.5
2017-Feb-16 21:33N 48°29' W 124°55'1312.6
2017-Feb-16 20:34N 48°28' W 125°14'1313.2
2017-Feb-16 19:33N 48°27' W 125°33'1312.8
2017-Feb-16 18:33N 48°26' W 125°53'1312.7
2017-Feb-16 17:33N 48°25' W 126°12'  
Track history (hours):
 
Tides and Currents Weather Stations Pressure Air Temp Water Temp Dewpoint Dewpoint Depression Visibility Wind Speed Wind Dir Waves Ship Positions

Argent Gerbera

Last reported at 2017-Feb-21 01:27 UTC. Time now 2017-Feb-22 01:39 UTC.
Position N 45°29' W 125°20'.

Length 175 m; draft 9 m.

Type: Ship (hazmat cat B). MMSI: 538003929.

Date/timePositionNaut miles runAvg speedWind from/ knotsBaromVisibWave heightAir tempDewpointWater temp
2017-Feb-21 01:27N 45°29' W 125°20'1213.9
2017-Feb-21 00:33N 45°41' W 125°18'1313.3
2017-Feb-20 23:34N 45°45' W 124°60'1313.4
2017-Feb-20 22:33N 45°54' W 124°45'1313.4
2017-Feb-20 21:34N 46°02' W 124°29'1413.7
2017-Feb-20 20:34N 46°09' W 124°13'1010.2
2017-Feb-20 19:33N 46°15' W 124°00'1211.6
2017-Feb-20 18:34N 46°14' W 123°44'1312.6
2017-Feb-20 17:34N 46°13' W 123°25'1110.7
2017-Feb-20 16:34N 46°11' W 123°10'1413.7
2017-Feb-20 15:33N 46°04' W 122°53'3 3.1
2017-Feb-20 14:32N 46°01' W 122°52'0 0.0
2017-Feb-20 13:32N 46°01' W 122°52'0 0.0
2017-Feb-20 12:32N 46°01' W 122°52'0 0.0
2017-Feb-20 11:29N 46°01' W 122°52'0 0.0
2017-Feb-20 10:32N 46°01' W 122°52'0 0.0
2017-Feb-20 09:32N 46°01' W 122°52'0 0.0
2017-Feb-20 08:32N 46°01' W 122°52'0 0.0
2017-Feb-20 07:32N 46°01' W 122°52'0 0.0
2017-Feb-20 06:32N 46°01' W 122°52'0 0.0
2017-Feb-20 05:32N 46°01' W 122°52'0 0.0
2017-Feb-20 04:32N 46°01' W 122°52'0 0.0
2017-Feb-20 03:29N 46°01' W 122°52'0 0.0
2017-Feb-20 02:29N 46°01' W 122°52'0 0.0
2017-Feb-20 01:32N 46°01' W 122°52'0 0.0
2017-Feb-20 00:32N 46°01' W 122°52'0 0.0
2017-Feb-19 23:32N 46°01' W 122°52'0 0.0
2017-Feb-19 22:32N 46°01' W 122°52'0 0.0
2017-Feb-19 21:32N 46°01' W 122°52'0 0.0
2017-Feb-19 20:32N 46°01' W 122°52'0 0.5
2017-Feb-19 19:33N 46°02' W 122°52'8 8.3
2017-Feb-19 18:33N 46°08' W 123°00'1010.4
2017-Feb-19 17:33N 46°09' W 123°15'9 8.5
2017-Feb-19 16:33N 46°14' W 123°26'1111.4
2017-Feb-19 15:34N 46°15' W 123°42'1110.7
2017-Feb-19 14:33N 46°13' W 123°57'1211.5
2017-Feb-19 13:33N 46°11' W 124°14'9 8.9
2017-Feb-19 12:33N 46°12' W 124°27'8 7.8
2017-Feb-19 11:33N 46°12' W 124°38'10 9.8
2017-Feb-19 10:33N 46°12' W 124°52'9 9.1
2017-Feb-19 09:33N 46°13' W 125°05'1110.6
2017-Feb-19 08:33N 46°13' W 125°21'7 7.1
2017-Feb-19 07:32N 46°18' W 125°27'10 9.6
2017-Feb-19 06:32N 46°28' W 125°27'10 9.8
2017-Feb-19 05:33N 46°38' W 125°28'9812.1
2017-Feb-18 21:29N 48°15' W 125°28'1213.0
2017-Feb-18 20:33N 48°27' W 125°24'1211.4
2017-Feb-18 19:32N 48°31' W 125°08'3214.1
2017-Feb-18 17:15N 48°24' W 124°20'1014.1
2017-Feb-18 16:33N 48°20' W 124°07'1413.4
2017-Feb-18 15:32N 48°16' W 123°47'1212.4
2017-Feb-18 14:33N 48°17' W 123°29'1111.1
2017-Feb-18 13:33N 48°24' W 123°16'1414.0
2017-Feb-18 12:34N 48°38' W 123°14'1313.2
2017-Feb-18 11:33N 48°48' W 123°01'1515.4
2017-Feb-18 10:33N 48°59' W 123°17'1313.4
2017-Feb-18 09:33N 49°12' W 123°22'1211.6
2017-Feb-18 08:33N 49°19' W 123°08'4 3.9
2017-Feb-18 07:33N 49°18' W 123°02'0 0.0
2017-Feb-18 06:33N 49°18' W 123°02'0 0.0
2017-Feb-18 05:33N 49°18' W 123°02'0 0.0
2017-Feb-18 04:33N 49°18' W 123°02'0 0.0
2017-Feb-18 03:33N 49°18' W 123°02'0 0.0
2017-Feb-18 02:33N 49°18' W 123°02'0 0.0
2017-Feb-18 01:33N 49°18' W 123°02'0 0.0
2017-Feb-18 00:33N 49°18' W 123°02'0 0.0
2017-Feb-17 23:33N 49°18' W 123°02'0 0.0
2017-Feb-17 22:33N 49°18' W 123°02'0 0.0
2017-Feb-17 21:33N 49°18' W 123°02'0 0.0
2017-Feb-17 20:30N 49°18' W 123°02'0 0.0
2017-Feb-17 19:33N 49°18' W 123°02'0 0.0
2017-Feb-17 18:33N 49°18' W 123°02'0 0.0
2017-Feb-17 17:30N 49°18' W 123°02'0 0.0
2017-Feb-17 16:30N 49°18' W 123°02'0 0.0
2017-Feb-17 15:33N 49°18' W 123°02'0 0.0
2017-Feb-17 14:33N 49°18' W 123°02'0 0.0
2017-Feb-17 13:33N 49°18' W 123°02'0 0.0
2017-Feb-17 12:33N 49°18' W 123°02'0 0.0
2017-Feb-17 11:30N 49°18' W 123°02'0 0.0
2017-Feb-17 10:30N 49°18' W 123°02'0 0.0
2017-Feb-17 09:33N 49°18' W 123°02'2 2.0
2017-Feb-17 08:33N 49°18' W 123°05'9 9.2
2017-Feb-17 07:34N 49°16' W 123°19'1413.9
2017-Feb-17 06:33N 49°02' W 123°18'1414.5
2017-Feb-17 05:33N 48°51' W 123°03'1211.9
2017-Feb-17 04:33N 48°42' W 123°14'1514.9
2017-Feb-17 03:33N 48°27' W 123°10'1212.1
2017-Feb-17 02:33N 48°20' W 123°24'9 8.6
2017-Feb-17 01:33N 48°14' W 123°33'1413.7
2017-Feb-17 00:33N 48°13' W 123°54'1414.4
2017-Feb-16 23:33N 48°19' W 124°13'1615.7
2017-Feb-16 22:33N 48°26' W 124°35'1413.5
2017-Feb-16 21:33N 48°29' W 124°55'1312.6
2017-Feb-16 20:34N 48°28' W 125°14'1313.2
2017-Feb-16 19:33N 48°27' W 125°33'1312.8
2017-Feb-16 18:33N 48°26' W 125°53'1312.7
2017-Feb-16 17:33N 48°25' W 126°12'  

Dump ship's entire track history